sensor_id;sensor_type;location;lat;lon;timestamp;pressure;altitude;pressure_sealevel;temperature;humidity
61740;BME280;47645;45.288;12.038;2023-11-22T00:01:06;1009.6869609402025;;;9.198828125;100
61740;BME280;47645;45.288;12.038;2023-11-22T00:11:06;1009.6171245010819;;;9.096875;100
61740;BME280;47645;45.288;12.038;2023-11-22T00:21:07;1009.5457797482705;;;9.0560546875;100
61740;BME280;47645;45.288;12.038;2023-11-22T00:31:08;1009.4794292843078;;;9.101953125;100
61740;BME280;47645;45.288;12.038;2023-11-22T00:41:10;1009.6185197116557;;;9.015234375;100
61740;BME280;47645;45.288;12.038;2023-11-22T00:51:10;1009.8059534174997;;;8.89296875;100
61740;BME280;47645;45.288;12.038;2023-11-22T01:01:10;1009.8413971969925;;;8.877734375;100
61740;BME280;47645;45.288;12.038;2023-11-22T01:11:10;1009.8836757532731;;;8.780859375;100
61740;BME280;47645;45.288;12.038;2023-11-22T01:21:11;1009.8509978605911;;;8.80625;100
61740;BME280;47645;45.288;12.038;2023-11-22T01:31:12;1009.9241356348181;;;8.7349609375;100
61740;BME280;47645;45.288;12.038;2023-11-22T01:41:14;1009.944275805416;;;8.6330078125;100
61740;BME280;47645;45.288;12.038;2023-11-22T01:51:14;1009.9939651915797;;;8.7095703125;100
61740;BME280;47645;45.288;12.038;2023-11-22T02:01:14;1009.8983353028084;;;8.653515625;100
61740;BME280;47645;45.288;12.038;2023-11-22T02:11:17;1009.8720302954084;;;8.7197265625;100
61740;BME280;47645;45.288;12.038;2023-11-22T02:21:16;1009.7920901169413;;;8.653515625;100
61740;BME280;47645;45.288;12.038;2023-11-22T02:31:17;1009.819380845739;;;8.556640625;100
61740;BME280;47645;45.288;12.038;2023-11-22T02:41:17;1009.8128914099547;;;8.4087890625;100
61740;BME280;47645;45.288;12.038;2023-11-22T02:51:18;1009.8467130564961;;;8.2814453125;100
61740;BME280;47645;45.288;12.038;2023-11-22T03:01:19;1009.8476164162872;;;8.1947265625;100
61740;BME280;47645;45.288;12.038;2023-11-22T03:11:20;1009.9337954846343;;;8.2048828125;100
61740;BME280;47645;45.288;12.038;2023-11-22T03:21:20;1009.9559014213411;;;7.9296875;100
61740;BME280;47645;45.288;12.038;2023-11-22T03:31:21;1009.8998224946126;;;7.909375;100
61740;BME280;47645;45.288;12.038;2023-11-22T03:41:22;1009.9242892819253;;;7.8125;100
61740;BME280;47645;45.288;12.038;2023-11-22T03:51:22;1009.9541693718177;;;7.5984375;100
61740;BME280;47645;45.288;12.038;2023-11-22T04:01:23;1009.858520946283;;;7.61875;100
61740;BME280;47645;45.288;12.038;2023-11-22T04:11:24;1010.0355510126527;;;7.680078125;100
61740;BME280;47645;45.288;12.038;2023-11-22T04:21:25;1010.1082688214856;;;7.496484375;100
61740;BME280;47645;45.288;12.038;2023-11-22T04:31:25;1010.2592653567186;;;7.2671875;100
61740;BME280;47645;45.288;12.038;2023-11-22T04:41:27;1010.3479264685487;;;7.593359375;100
61740;BME280;47645;45.288;12.038;2023-11-22T04:51:29;1010.5034014760405;;;7.384375;100
61740;BME280;47645;45.288;12.038;2023-11-22T05:01:31;1010.509731437238;;;7.0939453125;100
61740;BME280;47645;45.288;12.038;2023-11-22T05:11:28;1010.5922558882486;;;6.96640625;100
61740;BME280;47645;45.288;12.038;2023-11-22T05:21:29;1010.7411125991893;;;7.3181640625;100
61740;BME280;47645;45.288;12.038;2023-11-22T05:31:30;1010.8608440254383;;;6.8697265625;100
61740;BME280;47645;45.288;12.038;2023-11-22T05:41:30;1010.877549933581;;;6.9919921875;100
61740;BME280;47645;45.288;12.038;2023-11-22T05:51:31;1010.9008214113439;;;6.9154296875;100
61740;BME280;47645;45.288;12.038;2023-11-22T06:01:32;1010.9453153958789;;;7.0939453125;100
61740;BME280;47645;45.288;12.038;2023-11-22T06:11:32;1010.9968124995544;;;7.185546875;100
61740;BME280;47645;45.288;12.038;2023-11-22T06:21:33;1011.1641393160878;;;7.1244140625;100
61740;BME280;47645;45.288;12.038;2023-11-22T06:31:34;1011.3462350491748;;;6.94609375;100
61740;BME280;47645;45.288;12.038;2023-11-22T06:41:35;1011.5607796037842;;;6.8083984375;100
61740;BME280;47645;45.288;12.038;2023-11-22T06:51:35;1011.7122330810988;;;6.625;100
61740;BME280;47645;45.288;12.038;2023-11-22T07:01:37;1011.9761882946648;;;6.951171875;100
61740;BME280;47645;45.288;12.038;2023-11-22T07:11:37;1012.1373519578877;;;7.1703125;100
61740;BME280;47645;45.288;12.038;2023-11-22T07:21:38;1012.4089716786058;;;7.51171875;100
61740;BME280;47645;45.288;12.038;2023-11-22T07:31:38;1012.4589691614499;;;7.496484375;100
61740;BME280;47645;45.288;12.038;2023-11-22T07:41:39;1012.5624644247026;;;7.72578125;100
61740;BME280;47645;45.288;12.038;2023-11-22T07:51:40;1012.8162834634348;;;7.70546875;100
61740;BME280;47645;45.288;12.038;2023-11-22T08:01:42;1013.0589769410111;;;8.1029296875;100
61740;BME280;47645;45.288;12.038;2023-11-22T08:11:41;1013.2454203594898;;;8.6279296875;98.67300849456039
61740;BME280;47645;45.288;12.038;2023-11-22T08:21:42;1013.2468106566397;;;9.091796875;95.63486633732455
61740;BME280;47645;45.288;12.038;2023-11-22T08:31:42;1013.371499367377;;;9.6115234375;91.55308480939593
61740;BME280;47645;45.288;12.038;2023-11-22T08:41:43;1013.508208773717;;;10.27421875;88.15081473737247
61740;BME280;47645;45.288;12.038;2023-11-22T08:51:43;1013.6163842379673;;;10.81953125;85.65022320251776
61740;BME280;47645;45.288;12.038;2023-11-22T09:01:46;1013.7764085434939;;;11.4056640625;81.48816654174207
61740;BME280;47645;45.288;12.038;2023-11-22T09:11:46;1013.8295051821646;;;11.9203125;78.71743332636869
61740;BME280;47645;45.288;12.038;2023-11-22T09:21:46;1013.9194013423959;;;12.2669921875;76.9877369008362
61740;BME280;47645;45.288;12.038;2023-11-22T09:31:47;1013.9163450333824;;;12.8275390625;75.35649058502402
61740;BME280;47645;45.288;12.038;2023-11-22T09:41:47;1013.9525762313461;;;13.3015625;71.97778321918784
61740;BME280;47645;45.288;12.038;2023-11-22T09:51:48;1013.9601326754147;;;13.510546875;71.14962882460705
61740;BME280;47645;45.288;12.038;2023-11-22T10:01:49;1014.0199923184889;;;13.8521484375;70.68089950141525
61740;BME280;47645;45.288;12.038;2023-11-22T10:11:51;1014.0448679254489;;;14.2037109375;68.27671543498117
61740;BME280;47645;45.288;12.038;2023-11-22T10:22:02;1014.0823351252379;;;14.443359375;66.44415133997421
61740;BME280;47645;45.288;12.038;2023-11-22T10:31:52;1014.2350802910104;;;14.7796875;66.75119414310124
61740;BME280;47645;45.288;12.038;2023-11-22T10:41:52;1014.330818013343;;;14.8;64.95869854887444
61740;BME280;47645;45.288;12.038;2023-11-22T10:51:54;1014.369338875858;;;14.9275390625;66.30513393829001
61740;BME280;47645;45.288;12.038;2023-11-22T11:01:56;1014.4772340700528;;;15.1263671875;65.90624098698626
61740;BME280;47645;45.288;12.038;2023-11-22T11:11:57;1014.5755094897903;;;15.223046875;66.01417253743712
61740;BME280;47645;45.288;12.038;2023-11-22T11:21:59;1014.5628523502259;;;15.3708984375;71.71398130418267
61740;BME280;47645;45.288;12.038;2023-11-22T11:31:57;1014.6151920116032;;;15.289453125;65.93345285950687
61740;BME280;47645;45.288;12.038;2023-11-22T11:42:13;1014.5799234914792;;;15.3759765625;66.72798586780553
61740;BME280;47645;45.288;12.038;2023-11-22T11:52:00;1014.6571222226668;;;15.5544921875;65.9894577664685
61740;BME280;47645;45.288;12.038;2023-11-22T12:02:00;1014.7475155441535;;;15.182421875;66.95154447608938
61740;BME280;47645;45.288;12.038;2023-11-22T12:12:02;1014.7298067317937;;;15.7328125;67.64592992326943
61740;BME280;47645;45.288;12.038;2023-11-22T12:22:02;1014.7464974602101;;;15.544140625;66.18638462489972
61740;BME280;47645;45.288;12.038;2023-11-22T12:32:03;1014.8988060545751;;;15.4728515625;67.44945907731845
61740;BME280;47645;45.288;12.038;2023-11-22T12:42:04;1014.8055818496376;;;15.31484375;66.45412927527848
61740;BME280;47645;45.288;12.038;2023-11-22T12:52:06;1015.0603503664047;;;15.330078125;64.80951729781516
61740;BME280;47645;45.288;12.038;2023-11-22T13:02:06;1015.0620804242524;;;15.19765625;66.26036319567288
61740;BME280;47645;45.288;12.038;2023-11-22T13:12:07;1015.2505789906926;;;15.075390625;65.50994876069295
61740;BME280;47645;45.288;12.038;2023-11-22T13:22:09;1015.1842569670699;;;15.1314453125;65.84524208505589
61740;BME280;47645;45.288;12.038;2023-11-22T13:32:09;1015.1675438461751;;;15.0140625;65.18444075258385
61740;BME280;47645;45.288;12.038;2023-11-22T13:42:09;1015.193504159539;;;15.0498046875;68.33842170083975
61740;BME280;47645;45.288;12.038;2023-11-22T13:52:09;1015.1217903779277;;;14.99375;65.57789194121433
61740;BME280;47645;45.288;12.038;2023-11-22T14:02:10;1015.1826472556199;;;14.764453125;65.12508446925408
61740;BME280;47645;45.288;12.038;2023-11-22T14:12:11;1015.4168806008015;;;14.6216796875;65.88147617430536
61740;BME280;47645;45.288;12.038;2023-11-22T14:22:14;1015.4753473015364;;;14.5095703125;65.35165061363212
61740;BME280;47645;45.288;12.038;2023-11-22T14:32:13;1015.4760205715462;;;14.36171875;64.1682342502846
61740;BME280;47645;45.288;12.038;2023-11-22T14:42:14;1015.5652155663349;;;14.1935546875;65.02346058036993
61740;BME280;47645;45.288;12.038;2023-11-22T14:52:17;1015.7460705528365;;;14.152734375;66.31285899138436
61740;BME280;47645;45.288;12.038;2023-11-22T15:02:16;1015.8668110787058;;;13.918359375;67.2134036076774
61740;BME280;47645;45.288;12.038;2023-11-22T15:12:20;1016.0251591713118;;;13.4443359375;67.21618543424661
61740;BME280;47645;45.288;12.038;2023-11-22T15:22:17;1016.0880107828589;;;13.296484375;68.23656925532167
61740;BME280;47645;45.288;12.038;2023-11-22T15:32:18;1016.1868369556472;;;13.17421875;69.16495057048476
61740;BME280;47645;45.288;12.038;2023-11-22T15:42:19;1016.5412697016296;;;12.853125;69.9369853028261
61740;BME280;47645;45.288;12.038;2023-11-22T15:52:20;1016.6908973873049;;;12.537109375;71.3782273926471
61740;BME280;47645;45.288;12.038;2023-11-22T16:02:20;1016.9247659540233;;;12.343359375;71.18972798192227
61740;BME280;47645;45.288;12.038;2023-11-22T16:12:22;1017.0415233766564;;;12.0833984375;71.45009526230035
61740;BME280;47645;45.288;12.038;2023-11-22T16:22:22;1017.2691541609852;;;11.8796875;72.85625026370104
61740;BME280;47645;45.288;12.038;2023-11-22T16:32:23;1017.583979590243;;;11.6603515625;73.87118427628171
61740;BME280;47645;45.288;12.038;2023-11-22T16:42:23;1017.6522221740801;;;11.5279296875;74.2216359283457
61740;BME280;47645;45.288;12.038;2023-11-22T16:52:26;1017.6791205657609;;;11.471875;74.89768168652873
61740;BME280;47645;45.288;12.038;2023-11-22T17:02:25;1017.9014572565703;;;11.2935546875;76.05048893911824
61740;BME280;47645;45.288;12.038;2023-11-22T17:12:26;1018.0865035198526;;;11.07421875;77.37703554877022
61740;BME280;47645;45.288;12.038;2023-11-22T17:22:28;1018.1068978252438;;;10.855078125;79.24084472402527
61740;BME280;47645;45.288;12.038;2023-11-22T17:32:27;1018.306365346948;;;10.8041015625;79.43085457439396
61740;BME280;47645;45.288;12.038;2023-11-22T17:42:28;1018.3502829930935;;;10.60546875;80.78759215438788
61740;BME280;47645;45.288;12.038;2023-11-22T17:52:29;1018.4173000987955;;;10.4576171875;80.84975542955948
61740;BME280;47645;45.288;12.038;2023-11-22T18:02:30;1018.4475780627872;;;10.4322265625;82.62217941397387
61740;BME280;47645;45.288;12.038;2023-11-22T18:12:30;1018.5243915408959;;;10.202734375;83.23515816920283
61740;BME280;47645;45.288;12.038;2023-11-22T18:22:31;1018.7043958811332;;;10.090625;84.05945461726158
61740;BME280;47645;45.288;12.038;2023-11-22T18:32:33;1018.9424281938796;;;10.0193359375;84.17257612073078
61740;BME280;47645;45.288;12.038;2023-11-22T18:42:32;1019.166617706478;;;9.861328125;85.60658427704884
61740;BME280;47645;45.288;12.038;2023-11-22T18:52:34;1019.3095825533699;;;9.8306640625;84.9562261630513
61740;BME280;47645;45.288;12.038;2023-11-22T19:02:34;1019.4577076501967;;;9.744140625;85.32726991761506
61740;BME280;47645;45.288;12.038;2023-11-22T19:12:35;1019.5001563377263;;;9.443359375;89.05050849020472
61740;BME280;47645;45.288;12.038;2023-11-22T19:22:35;1019.5436925422297;;;9.5912109375;94.90285010156111
61740;BME280;47645;45.288;12.038;2023-11-22T19:32:36;1019.8044345293382;;;9.3619140625;92.54831276799182
61740;BME280;47645;45.288;12.038;2023-11-22T19:42:37;1019.9542821832761;;;9.1732421875;89.40540796273505
61740;BME280;47645;45.288;12.038;2023-11-22T19:52:37;1019.9168470700366;;;9.101953125;92.41166223878973
61740;BME280;47645;45.288;12.038;2023-11-22T20:02:39;1020.1919590032429;;;9.5453125;100
61740;BME280;47645;45.288;12.038;2023-11-22T20:12:39;1020.4518205827126;;;9.1833984375;99.3625093471517
61740;BME280;47645;45.288;12.038;2023-11-22T20:22:39;1020.4180347427576;;;8.811328125;99.4725981369725
61740;BME280;47645;45.288;12.038;2023-11-22T20:32:40;1020.4646860998535;;;8.9287109375;100
61740;BME280;47645;45.288;12.038;2023-11-22T20:42:41;1020.6917316774237;;;8.5208984375;92.39797123374115
61740;BME280;47645;45.288;12.038;2023-11-22T20:52:41;1020.5713569289742;;;8.3068359375;93.5708241430107
61740;BME280;47645;45.288;12.038;2023-11-22T21:02:42;1020.6903815596216;;;8.332421875;91.88416024569042
61740;BME280;47645;45.288;12.038;2023-11-22T21:12:43;1020.5957896083273;;;8.332421875;98.3077477164178
61740;BME280;47645;45.288;12.038;2023-11-22T21:22:43;1020.5443817535513;;;8.118359375;93.96893616648863
61740;BME280;47645;45.288;12.038;2023-11-22T21:32:44;1020.6961086008181;;;8.3017578125;99.636256340081
61740;BME280;47645;45.288;12.038;2023-11-22T21:42:45;1020.9706946825427;;;8.128515625;95.44294737765462
61740;BME280;47645;45.288;12.038;2023-11-22T21:52:46;1021.1722026762557;;;8.0009765625;94.95998974973362
61740;BME280;47645;45.288;12.038;2023-11-22T22:02:46;1021.209479164971;;;7.8634765625;95.20259944265082
61740;BME280;47645;45.288;12.038;2023-11-22T22:12:47;1021.1676834640266;;;7.7716796875;96.54543819427779
61740;BME280;47645;45.288;12.038;2023-11-22T22:22:47;1021.336880093359;;;7.7462890625;98.03077060661525
61740;BME280;47645;45.288;12.038;2023-11-22T22:32:48;1021.4896259722686;;;7.8482421875;96.01474966572363
61740;BME280;47645;45.288;12.038;2023-11-22T22:42:50;1021.4778253715474;;;7.9501953125;100
61740;BME280;47645;45.288;12.038;2023-11-22T22:52:49;1021.4514738995584;;;7.6341796875;96.34925707287782
61740;BME280;47645;45.288;12.038;2023-11-22T23:02:50;1021.5382581595707;;;7.51171875;97.53571247188785
61740;BME280;47645;45.288;12.038;2023-11-22T23:12:51;1021.469840392014;;;7.399609375;97.59691083635914
61740;BME280;47645;45.288;12.038;2023-11-22T23:22:51;1021.2708305704369;;;7.48125;97.25061012400246
61740;BME280;47645;45.288;12.038;2023-11-22T23:32:52;1021.2264454437836;;;7.4251953125;97.77647074750868
61740;BME280;47645;45.288;12.038;2023-11-22T23:42:54;1021.0407849801774;;;7.379296875;97.11059632782954
61740;BME280;47645;45.288;12.038;2023-11-22T23:52:53;1021.1960005891756;;;7.175390625;97.82867276454894
